Time;durP1;ratioP1;P1;durP2;ratioP2;P2;SDS_P1;SDS_P2;PMS_P1;PMS_P2;Temp;Humidity;BMP_temperature;BMP_pressure;BME280_temperature;BME280_humidity;BME280_pressure;Samples;Min_cycle;Max_cycle;Signal;HPM_P1;HPM_P2
2022/05/13 00:02:06;;;;;;;0.00;0.00;;;;;;;;;;6197841;23;20012;-49
2022/05/13 00:04:32;;;;;;;0.00;0.00;;;;;;;;;;6231538;23;20012;-48
2022/05/13 00:06:58;;;;;;;0.00;0.00;;;;;;;;;;6230251;23;20070;-49
2022/05/13 00:09:56;;;;;;;0.00;0.00;;;;;;;;;;6231988;23;20769;-50
2022/05/13 00:12:08;;;;;;;0.00;0.00;;;;;;;;;;6231405;23;20019;-48
2022/05/13 00:14:34;;;;;;;0.00;0.00;;;;;;;;;;6232388;23;20008;-49
2022/05/13 00:16:59;;;;;;;0.00;0.00;;;;;;;;;;6231730;23;20023;-49
2022/05/13 00:19:24;;;;;;;0.00;0.00;;;;;;;;;;6234339;23;20020;-52
2022/05/13 00:21:50;;;;;;;0.00;0.00;;;;;;;;;;6235574;23;20007;-47
2022/05/13 00:24:15;;;;;;;0.00;0.00;;;;;;;;;;6234921;23;20016;-48
2022/05/13 00:26:40;;;;;;;0.00;0.00;;;;;;;;;;6233913;23;20004;-48
2022/05/13 00:29:05;;;;;;;0.00;0.00;;;;;;;;;;6236744;23;20016;-49
2022/05/13 00:31:31;;;;;;;0.00;0.00;;;;;;;;;;6233921;23;20012;-48
2022/05/13 00:33:57;;;;;;;0.00;0.00;;;;;;;;;;6235400;23;20068;-49
2022/05/13 00:36:22;;;;;;;0.10;0.10;;;;;;;;;;6233890;23;20255;-53
2022/05/13 00:38:48;;;;;;;0.00;0.00;;;;;;;;;;6236511;23;20019;-49
2022/05/13 00:41:14;;;;;;;0.00;0.00;;;;;;;;;;6233472;23;20459;-47
2022/05/13 00:43:45;;;;;;;0.00;0.00;;;;;;;;;;6236301;23;20008;-49
2022/05/13 00:46:10;;;;;;;0.15;0.08;;;;;;;;;;6233736;23;20015;-48
2022/05/13 00:48:36;;;;;;;0.10;0.10;;;;;;;;;;6235920;23;20016;-49
2022/05/13 00:51:03;;;;;;;0.00;0.00;;;;;;;;;;6234690;23;20069;-48
2022/05/13 00:53:28;;;;;;;0.00;0.00;;;;;;;;;;6236220;23;20025;-51
2022/05/13 00:55:54;;;;;;;0.00;0.00;;;;;;;;;;6234959;23;20004;-50
2022/05/13 00:58:19;;;;;;;0.00;0.00;;;;;;;;;;6208508;23;20620;-52
2022/05/13 01:00:46;;;;;;;0.30;0.17;;;;;;;;;;6235138;23;20370;-51
2022/05/13 01:03:11;;;;;;;0.00;0.00;;;;;;;;;;6235584;23;20019;-49
2022/05/13 01:05:37;;;;;;;0.00;0.00;;;;;;;;;;6234399;23;20088;-50
2022/05/13 01:08:04;;;;;;;0.00;0.00;;;;;;;;;;6236387;23;20012;-49
2022/05/13 01:10:30;;;;;;;0.00;0.00;;;;;;;;;;6233994;23;20007;-48
2022/05/13 01:12:57;;;;;;;0.00;0.00;;;;;;;;;;6236424;23;20012;-48
2022/05/13 01:15:25;;;;;;;0.20;0.20;;;;;;;;;;6206955;23;20240;-49
2022/05/13 01:18:06;;;;;;;0.00;0.00;;;;;;;;;;6236686;23;20487;-50
2022/05/13 01:20:47;;;;;;;0.00;0.00;;;;;;;;;;6235609;23;20016;-52
2022/05/13 01:23:15;;;;;;;0.00;0.00;;;;;;;;;;6232818;23;20024;-51
2022/05/13 01:25:48;;;;;;;0.00;0.00;;;;;;;;;;6236274;23;20060;-52
2022/05/13 01:28:18;;;;;;;0.00;0.00;;;;;;;;;;6232294;23;20308;-50
2022/05/13 01:30:48;;;;;;;0.00;0.00;;;;;;;;;;6236318;23;20038;-47
2022/05/13 01:33:14;;;;;;;5.30;1.27;;;;;;;;;;6233339;23;20080;-50
2022/05/13 01:35:44;;;;;;;0.10;0.10;;;;;;;;;;6235428;23;20012;-48
2022/05/13 01:38:10;;;;;;;0.00;0.00;;;;;;;;;;6228674;23;20054;-50
2022/05/13 01:40:35;;;;;;;0.00;0.00;;;;;;;;;;6236000;23;20012;-49
2022/05/13 01:43:01;;;;;;;0.00;0.00;;;;;;;;;;6234746;23;20012;-51
2022/05/13 01:45:26;;;;;;;0.00;0.00;;;;;;;;;;6236676;23;20016;-49
2022/05/13 01:47:51;;;;;;;0.35;0.35;;;;;;;;;;6209553;23;20012;-49
2022/05/13 01:50:17;;;;;;;0.00;0.00;;;;;;;;;;6236379;23;20012;-50
2022/05/13 01:52:42;;;;;;;0.00;0.00;;;;;;;;;;6236599;23;20007;-48
2022/05/13 01:55:07;;;;;;;0.75;0.75;;;;;;;;;;6237640;23;20012;-49
2022/05/13 01:57:33;;;;;;;0.00;0.00;;;;;;;;;;6235669;23;20022;-48
2022/05/13 01:59:58;;;;;;;0.30;0.30;;;;;;;;;;6237522;23;20166;-48
2022/05/13 02:02:23;;;;;;;0.10;0.10;;;;;;;;;;6234474;23;20417;-51
2022/05/13 02:04:49;;;;;;;0.00;0.00;;;;;;;;;;6238641;23;20008;-47
2022/05/13 02:07:14;;;;;;;0.00;0.00;;;;;;;;;;6234726;23;20019;-49
2022/05/13 02:09:39;;;;;;;0.00;0.00;;;;;;;;;;6238055;23;20008;-49
2022/05/13 02:12:05;;;;;;;0.00;0.00;;;;;;;;;;6236005;23;20032;-52
2022/05/13 02:14:30;;;;;;;0.00;0.00;;;;;;;;;;6237001;23;20008;-51
2022/05/13 02:16:56;;;;;;;0.75;0.55;;;;;;;;;;6236238;23;20020;-48
2022/05/13 02:19:21;;;;;;;0.00;0.00;;;;;;;;;;6237396;23;20607;-49
2022/05/13 02:21:46;;;;;;;0.00;0.00;;;;;;;;;;6236789;23;20008;-49
2022/05/13 02:24:12;;;;;;;0.38;0.38;;;;;;;;;;6237148;23;20020;-48
2022/05/13 02:26:37;;;;;;;0.30;0.30;;;;;;;;;;6236266;23;20012;-49
2022/05/13 02:29:02;;;;;;;0.10;0.10;;;;;;;;;;6211140;23;20016;-48
2022/05/13 02:31:30;;;;;;;0.00;0.00;;;;;;;;;;6235632;23;20055;-51
2022/05/13 02:33:56;;;;;;;0.00;0.00;;;;;;;;;;6238212;23;20026;-51
2022/05/13 02:36:22;;;;;;;0.00;0.00;;;;;;;;;;6234736;23;20030;-51
2022/05/13 02:38:47;;;;;;;0.00;0.00;;;;;;;;;;6239012;23;20031;-49
2022/05/13 02:41:12;;;;;;;0.10;0.10;;;;;;;;;;6234829;23;20016;-48
2022/05/13 02:43:56;;;;;;;0.10;0.10;;;;;;;;;;6237239;23;20391;-49
2022/05/13 02:46:23;;;;;;;0.22;0.22;;;;;;;;;;6234408;23;20099;-50
2022/05/13 02:48:48;;;;;;;0.00;0.00;;;;;;;;;;6238512;23;20012;-51
2022/05/13 02:51:14;;;;;;;0.60;0.60;;;;;;;;;;6235124;23;20051;-50
2022/05/13 02:53:40;;;;;;;0.00;0.00;;;;;;;;;;6238570;23;19996;-49
2022/05/13 02:56:07;;;;;;;0.20;0.20;;;;;;;;;;6235877;23;20016;-51
2022/05/13 02:58:32;;;;;;;0.00;0.00;;;;;;;;;;6236594;23;20020;-51
2022/05/13 03:00:57;;;;;;;0.00;0.00;;;;;;;;;;6236341;23;20458;-49
2022/05/13 03:03:23;;;;;;;0.00;0.00;;;;;;;;;;6236541;23;20027;-49
2022/05/13 03:05:48;;;;;;;0.00;0.00;;;;;;;;;;6236616;23;20008;-51
2022/05/13 03:08:13;;;;;;;0.00;0.00;;;;;;;;;;6208416;23;20027;-49
2022/05/13 03:10:39;;;;;;;0.00;0.00;;;;;;;;;;6210009;23;20031;-48
2022/05/13 03:13:05;;;;;;;0.47;0.47;;;;;;;;;;6237258;23;20078;-48
2022/05/13 03:15:31;;;;;;;0.00;0.00;;;;;;;;;;6236800;23;20012;-47
2022/05/13 03:17:56;;;;;;;6.13;0.20;;;;;;;;;;6236795;23;20020;-49
2022/05/13 03:20:21;;;;;;;0.00;0.00;;;;;;;;;;6208156;23;20186;-47
2022/05/13 03:22:47;;;;;;;0.00;0.00;;;;;;;;;;6237544;23;20355;-48
2022/05/13 03:25:13;;;;;;;0.00;0.00;;;;;;;;;;6234938;23;20012;-48
2022/05/13 03:27:38;;;;;;;0.10;0.10;;;;;;;;;;6237315;23;20012;-49
2022/05/13 03:30:04;;;;;;;2.05;0.40;;;;;;;;;;6235523;23;20016;-47
2022/05/13 03:32:30;;;;;;;0.00;0.00;;;;;;;;;;6237153;23;20230;-49
2022/05/13 03:34:55;;;;;;;0.35;0.35;;;;;;;;;;6228920;23;20363;-51
2022/05/13 03:37:20;;;;;;;0.08;0.08;;;;;;;;;;6235667;23;20016;-49
2022/05/13 03:39:46;;;;;;;0.00;0.00;;;;;;;;;;6236057;23;20042;-49
2022/05/13 03:42:11;;;;;;;0.00;0.00;;;;;;;;;;6232708;23;20861;-50
2022/05/13 03:44:36;;;;;;;0.00;0.00;;;;;;;;;;6235898;23;20600;-47
2022/05/13 03:47:02;;;;;;;0.00;0.00;;;;;;;;;;6236933;23;20383;-48
2022/05/13 03:49:27;;;;;;;0.00;0.00;;;;;;;;;;6233937;23;20023;-47
2022/05/13 03:51:53;;;;;;;0.00;0.00;;;;;;;;;;6236354;23;20040;-49
2022/05/13 03:54:18;;;;;;;0.00;0.00;;;;;;;;;;6235794;23;20038;-49
2022/05/13 03:56:43;;;;;;;0.00;0.00;;;;;;;;;;6237166;23;20423;-50
2022/05/13 03:59:08;;;;;;;0.32;0.22;;;;;;;;;;6234879;23;20545;-47
2022/05/13 04:01:34;;;;;;;0.10;0.10;;;;;;;;;;6236624;23;20459;-51
2022/05/13 04:03:59;;;;;;;0.00;0.00;;;;;;;;;;6236529;23;20012;-51
2022/05/13 04:09:08;;;;;;;0.00;0.00;;;;;;;;;;6235649;23;20065;-50
2022/05/13 04:11:36;;;;;;;0.00;0.00;;;;;;;;;;6234510;23;20517;-48
2022/05/13 04:16:46;;;;;;;0.00;0.00;;;;;;;;;;6234820;23;20039;-51
2022/05/13 04:19:11;;;;;;;0.03;0.03;;;;;;;;;;6236197;23;20024;-50
2022/05/13 04:21:37;;;;;;;0.10;0.10;;;;;;;;;;6234520;23;20582;-47
2022/05/13 04:24:04;;;;;;;0.00;0.00;;;;;;;;;;6236866;23;20027;-47
2022/05/13 04:26:30;;;;;;;0.10;0.10;;;;;;;;;;6234482;23;20004;-49
2022/05/13 04:28:56;;;;;;;0.00;0.00;;;;;;;;;;6236670;23;20030;-49
2022/05/13 04:31:31;;;;;;;0.10;0.10;;;;;;;;;;6234068;23;20008;-50
2022/05/13 04:33:57;;;;;;;0.00;0.00;;;;;;;;;;6236877;23;20016;-52
2022/05/13 04:36:25;;;;;;;0.85;0.28;;;;;;;;;;6234318;23;20027;-48
2022/05/13 04:38:51;;;;;;;0.00;0.00;;;;;;;;;;6237250;23;20020;-51
2022/05/13 04:44:01;;;;;;;4.55;0.40;;;;;;;;;;6235406;23;20626;-47
2022/05/13 04:46:26;;;;;;;0.00;0.00;;;;;;;;;;6233555;23;20016;-51
2022/05/13 04:48:53;;;;;;;0.20;0.20;;;;;;;;;;6235221;23;20395;-52
2022/05/13 04:51:18;;;;;;;0.00;0.00;;;;;;;;;;6234285;23;20016;-51
2022/05/13 04:53:45;;;;;;;0.10;0.10;;;;;;;;;;6236566;23;20012;-50
2022/05/13 04:56:10;;;;;;;0.22;0.22;;;;;;;;;;6234720;23;20039;-51
2022/05/13 04:58:36;;;;;;;0.10;0.10;;;;;;;;;;6235788;23;20363;-50
2022/05/13 05:01:01;;;;;;;0.35;0.35;;;;;;;;;;6235794;23;20040;-49
2022/05/13 05:03:28;;;;;;;0.28;0.28;;;;;;;;;;6234810;23;20074;-49
2022/05/13 05:05:54;;;;;;;0.10;0.10;;;;;;;;;;6235057;23;20023;-49
2022/05/13 05:08:19;;;;;;;0.10;0.10;;;;;;;;;;6235271;23;20012;-48
2022/05/13 05:10:45;;;;;;;0.00;0.00;;;;;;;;;;6235896;23;20010;-51
2022/05/13 05:13:19;;;;;;;0.10;0.10;;;;;;;;;;6235297;23;20451;-49
2022/05/13 05:15:45;;;;;;;0.08;0.08;;;;;;;;;;6236481;23;20012;-50
2022/05/13 05:18:10;;;;;;;0.17;0.17;;;;;;;;;;6234141;23;20028;-53
2022/05/13 05:20:36;;;;;;;0.10;0.10;;;;;;;;;;6235768;23;20019;-52
2022/05/13 05:23:02;;;;;;;0.20;0.20;;;;;;;;;;6234290;23;20013;-50
2022/05/13 05:25:29;;;;;;;0.00;0.00;;;;;;;;;;6236068;23;20012;-51
2022/05/13 05:27:55;;;;;;;0.00;0.00;;;;;;;;;;6234417;23;20025;-51
2022/05/13 05:30:20;;;;;;;0.00;0.00;;;;;;;;;;6235447;23;20016;-50
2022/05/13 05:32:45;;;;;;;5.65;2.30;;;;;;;;;;6234805;23;20012;-49
2022/05/13 05:35:12;;;;;;;0.30;0.20;;;;;;;;;;6235613;23;20016;-47
2022/05/13 05:37:38;;;;;;;0.10;0.10;;;;;;;;;;6234785;23;20474;-49
2022/05/13 05:40:03;;;;;;;0.20;0.20;;;;;;;;;;6235518;23;20012;-50
2022/05/13 05:42:29;;;;;;;0.00;0.00;;;;;;;;;;6234515;23;20004;-47
2022/05/13 05:44:54;;;;;;;0.10;0.10;;;;;;;;;;6235931;23;20020;-49
2022/05/13 05:47:21;;;;;;;0.00;0.00;;;;;;;;;;6232502;23;20012;-48
2022/05/13 05:49:46;;;;;;;0.00;0.00;;;;;;;;;;6236104;23;20016;-47
2022/05/13 05:52:11;;;;;;;0.00;0.00;;;;;;;;;;6233541;23;20043;-52
2022/05/13 05:57:22;;;;;;;1.25;1.13;;;;;;;;;;6233486;23;20031;-50
2022/05/13 05:59:48;;;;;;;0.00;0.00;;;;;;;;;;6180701;23;20021;-48
2022/05/13 06:02:14;;;;;;;0.10;0.10;;;;;;;;;;6173965;23;20041;-48
2022/05/13 06:04:39;;;;;;;0.00;0.00;;;;;;;;;;6176634;23;20020;-49
2022/05/13 06:07:06;;;;;;;0.10;0.10;;;;;;;;;;6173914;23;20013;-49
2022/05/13 06:09:31;;;;;;;0.00;0.00;;;;;;;;;;6176143;23;20013;-49
2022/05/13 06:11:56;;;;;;;0.00;0.00;;;;;;;;;;6174302;23;20048;-49
2022/05/13 06:14:21;;;;;;;0.00;0.00;;;;;;;;;;6176437;23;20028;-51
2022/05/13 06:16:48;;;;;;;0.10;0.10;;;;;;;;;;6174206;23;20021;-49
2022/05/13 06:19:13;;;;;;;0.00;0.00;;;;;;;;;;6174882;23;20032;-52
2022/05/13 06:21:39;;;;;;;0.10;0.10;;;;;;;;;;6173519;23;20017;-50
2022/05/13 06:24:04;;;;;;;0.00;0.00;;;;;;;;;;6176763;23;20036;-50
2022/05/13 06:26:30;;;;;;;0.20;0.20;;;;;;;;;;6173576;23;20005;-50
2022/05/13 06:28:56;;;;;;;0.00;0.00;;;;;;;;;;6175854;23;20017;-50
2022/05/13 06:31:21;;;;;;;0.00;0.00;;;;;;;;;;6175124;23;20013;-47
2022/05/13 06:33:47;;;;;;;0.10;0.10;;;;;;;;;;6175276;23;20012;-48
2022/05/13 06:36:13;;;;;;;0.75;0.22;;;;;;;;;;6176896;23;20025;-52
2022/05/13 06:38:38;;;;;;;0.00;0.00;;;;;;;;;;6173684;23;20095;-52
2022/05/13 06:41:03;;;;;;;0.00;0.00;;;;;;;;;;6177571;23;20477;-51
2022/05/13 06:43:29;;;;;;;0.00;0.00;;;;;;;;;;6175537;23;20021;-50
2022/05/13 06:45:55;;;;;;;0.10;0.10;;;;;;;;;;6175093;23;20012;-50
2022/05/13 06:48:20;;;;;;;0.10;0.10;;;;;;;;;;6176616;23;20017;-50
2022/05/13 06:50:47;;;;;;;0.00;0.00;;;;;;;;;;6176141;23;20055;-48
2022/05/13 06:53:12;;;;;;;0.00;0.00;;;;;;;;;;6174097;23;20032;-48
2022/05/13 06:55:39;;;;;;;0.00;0.00;;;;;;;;;;6175624;23;20009;-49
2022/05/13 06:58:04;;;;;;;0.00;0.00;;;;;;;;;;6183861;23;20021;-51
2022/05/13 07:00:30;;;;;;;0.13;0.13;;;;;;;;;;6235474;23;20039;-50
2022/05/13 07:02:55;;;;;;;0.00;0.00;;;;;;;;;;6237925;23;20644;-48
2022/05/13 07:05:21;;;;;;;0.00;0.00;;;;;;;;;;6234962;23;20153;-50
2022/05/13 07:07:47;;;;;;;0.00;0.00;;;;;;;;;;6237478;23;20012;-51
2022/05/13 07:10:12;;;;;;;0.00;0.00;;;;;;;;;;6235001;23;20016;-51
2022/05/13 07:12:38;;;;;;;1.02;0.68;;;;;;;;;;6210393;23;20575;-49
2022/05/13 07:15:04;;;;;;;0.00;0.00;;;;;;;;;;6209169;23;20066;-50
2022/05/13 07:17:30;;;;;;;0.10;0.10;;;;;;;;;;6236612;23;20028;-48
2022/05/13 07:19:55;;;;;;;0.00;0.00;;;;;;;;;;6236471;23;20304;-49
2022/05/13 07:22:21;;;;;;;0.22;0.22;;;;;;;;;;6236412;23;20015;-48
2022/05/13 07:24:46;;;;;;;0.00;0.00;;;;;;;;;;6236120;23;20015;-50
2022/05/13 07:27:12;;;;;;;0.00;0.00;;;;;;;;;;6235933;23;20019;-48
2022/05/13 07:29:37;;;;;;;0.00;0.00;;;;;;;;;;6231953;23;20015;-49
2022/05/13 07:32:02;;;;;;;0.00;0.00;;;;;;;;;;6237011;23;20012;-50
2022/05/13 07:34:28;;;;;;;0.00;0.00;;;;;;;;;;6232209;23;20334;-49
2022/05/13 07:36:53;;;;;;;0.32;0.13;;;;;;;;;;6236029;23;20055;-54
2022/05/13 07:42:03;;;;;;;0.00;0.00;;;;;;;;;;6237251;22;20043;-48
2022/05/13 07:44:29;;;;;;;0.00;0.00;;;;;;;;;;6233313;23;20031;-50
2022/05/13 07:46:54;;;;;;;0.00;0.00;;;;;;;;;;6236318;23;20379;-48
2022/05/13 07:49:19;;;;;;;0.00;0.00;;;;;;;;;;6234263;23;20020;-48
2022/05/13 07:51:45;;;;;;;0.00;0.00;;;;;;;;;;6237142;23;20030;-50
2022/05/13 07:54:10;;;;;;;0.00;0.00;;;;;;;;;;6201075;23;20035;-48
2022/05/13 07:56:35;;;;;;;0.00;0.00;;;;;;;;;;6226487;23;20268;-51
2022/05/13 07:59:02;;;;;;;0.10;0.10;;;;;;;;;;6234095;23;20035;-49
2022/05/13 08:01:27;;;;;;;0.10;0.10;;;;;;;;;;6234604;23;20016;-49
2022/05/13 08:03:53;;;;;;;0.00;0.00;;;;;;;;;;6232605;23;20012;-50
2022/05/13 08:06:18;;;;;;;0.63;0.63;;;;;;;;;;6235005;23;20012;-49
2022/05/13 08:08:45;;;;;;;1.15;1.08;;;;;;;;;;6237165;23;20019;-50
2022/05/13 08:11:12;;;;;;;0.00;0.00;;;;;;;;;;6234901;23;20023;-49
2022/05/13 08:13:38;;;;;;;0.47;0.47;;;;;;;;;;6232815;23;20073;-53
2022/05/13 08:16:05;;;;;;;0.00;0.00;;;;;;;;;;6228683;23;20024;-47
2022/05/13 08:18:31;;;;;;;0.00;0.00;;;;;;;;;;6227664;23;20016;-51
2022/05/13 08:20:57;;;;;;;0.00;0.00;;;;;;;;;;6230054;23;20036;-52
2022/05/13 08:23:22;;;;;;;0.00;0.00;;;;;;;;;;6226365;23;20422;-53
2022/05/13 08:25:47;;;;;;;0.00;0.00;;;;;;;;;;6229108;23;20079;-51
2022/05/13 08:28:13;;;;;;;0.00;0.00;;;;;;;;;;6226958;23;20019;-48
2022/05/13 08:30:39;;;;;;;0.00;0.00;;;;;;;;;;6225534;23;20350;-50
2022/05/13 08:33:08;;;;;;;0.20;0.20;;;;;;;;;;6226308;23;20012;-50
2022/05/13 08:35:38;;;;;;;0.10;0.10;;;;;;;;;;6222405;23;20359;-51
2022/05/13 08:38:03;;;;;;;0.00;0.00;;;;;;;;;;6199898;23;20044;-52
2022/05/13 08:40:35;;;;;;;0.15;0.15;;;;;;;;;;6232755;23;20066;-50
2022/05/13 08:43:03;;;;;;;0.00;0.00;;;;;;;;;;6233532;23;20030;-50
2022/05/13 08:45:29;;;;;;;0.10;0.10;;;;;;;;;;6207871;23;20015;-50
2022/05/13 08:47:56;;;;;;;0.00;0.00;;;;;;;;;;6234768;23;20307;-48
2022/05/13 08:50:39;;;;;;;0.00;0.00;;;;;;;;;;6235916;23;20020;-51
2022/05/13 08:53:11;;;;;;;0.00;0.00;;;;;;;;;;6235032;23;20079;-52
2022/05/13 08:55:46;;;;;;;0.00;0.00;;;;;;;;;;6224427;23;20016;-52
2022/05/13 08:58:19;;;;;;;0.35;0.35;;;;;;;;;;6235127;23;20020;-49
2022/05/13 09:00:47;;;;;;;0.00;0.00;;;;;;;;;;6235801;23;20016;-50
2022/05/13 09:03:15;;;;;;;0.00;0.00;;;;;;;;;;6233235;23;20012;-51
2022/05/13 09:05:43;;;;;;;0.00;0.00;;;;;;;;;;6219131;23;20015;-50
2022/05/13 09:08:09;;;;;;;0.10;0.10;;;;;;;;;;6217220;23;20009;-52
2022/05/13 09:10:44;;;;;;;0.00;0.00;;;;;;;;;;6216659;23;20179;-49
2022/05/13 09:13:16;;;;;;;0.00;0.00;;;;;;;;;;6202955;23;20027;-52
2022/05/13 09:15:44;;;;;;;0.45;0.45;;;;;;;;;;6224437;23;20004;-50
2022/05/13 09:18:50;;;;;;;0.00;0.00;;;;;;;;;;6232176;23;20181;-51
2022/05/13 09:21:17;;;;;;;0.00;0.00;;;;;;;;;;6076951;23;20029;-49
2022/05/13 09:23:42;;;;;;;0.00;0.00;;;;;;;;;;6070249;23;20015;-52
2022/05/13 09:26:18;;;;;;;0.80;0.80;;;;;;;;;;6150912;23;20015;-50
2022/05/13 09:29:03;;;;;;;0.00;0.00;;;;;;;;;;6219106;23;20075;-51
2022/05/13 09:31:30;;;;;;;0.00;0.00;;;;;;;;;;6234326;23;20008;-49
2022/05/13 09:33:55;;;;;;;0.00;0.00;;;;;;;;;;6232346;23;20028;-51
2022/05/13 09:36:23;;;;;;;0.00;0.00;;;;;;;;;;6234886;23;20077;-53
2022/05/13 09:38:48;;;;;;;0.00;0.00;;;;;;;;;;6234079;23;20462;-52
2022/05/13 09:41:22;;;;;;;2.90;0.55;;;;;;;;;;6208551;23;20040;-49
2022/05/13 09:43:52;;;;;;;0.00;0.00;;;;;;;;;;6234778;23;20035;-49
2022/05/13 09:46:31;;;;;;;0.00;0.00;;;;;;;;;;6232813;23;20008;-53
2022/05/13 09:48:59;;;;;;;0.00;0.00;;;;;;;;;;6234321;23;20062;-48
2022/05/13 09:51:25;;;;;;;0.00;0.00;;;;;;;;;;6234550;23;20012;-50
2022/05/13 09:54:01;;;;;;;0.00;0.00;;;;;;;;;;6232433;23;20285;-50
2022/05/13 09:56:33;;;;;;;0.00;0.00;;;;;;;;;;6234210;23;20051;-50
2022/05/13 09:59:03;;;;;;;0.00;0.00;;;;;;;;;;6234562;23;20019;-51
2022/05/13 10:01:28;;;;;;;0.80;0.65;;;;;;;;;;6232080;23;20451;-49
2022/05/13 10:04:10;;;;;;;0.00;0.00;;;;;;;;;;6236742;23;20024;-52
2022/05/13 10:06:36;;;;;;;0.00;0.00;;;;;;;;;;6236360;23;20000;-49
2022/05/13 10:14:50;;;;;;;0.00;0.00;;;;;;;;;;6237059;23;20034;-53
2022/05/13 10:17:19;;;;;;;0.00;0.00;;;;;;;;;;6235128;23;20012;-52
2022/05/13 10:19:50;;;;;;;0.10;0.10;;;;;;;;;;6237310;23;20008;-53
2022/05/13 10:22:34;;;;;;;0.00;0.00;;;;;;;;;;6234093;23;20062;-50
2022/05/13 10:25:05;;;;;;;0.32;0.32;;;;;;;;;;6235051;23;20019;-53
2022/05/13 10:27:36;;;;;;;0.10;0.10;;;;;;;;;;6235733;23;20104;-49
2022/05/13 10:30:26;;;;;;;0.15;0.15;;;;;;;;;;6209336;23;20016;-51
2022/05/13 10:33:02;;;;;;;0.10;0.10;;;;;;;;;;6211676;23;20047;-50
2022/05/13 10:35:31;;;;;;;0.10;0.10;;;;;;;;;;6235218;23;20044;-48
2022/05/13 10:38:07;;;;;;;0.00;0.00;;;;;;;;;;6237391;23;20019;-49
2022/05/13 10:40:39;;;;;;;0.00;0.00;;;;;;;;;;6237446;23;20482;-47
2022/05/13 10:43:04;;;;;;;0.00;0.00;;;;;;;;;;6237013;23;20008;-52
2022/05/13 10:45:30;;;;;;;0.10;0.10;;;;;;;;;;6209781;23;20015;-48
2022/05/13 10:47:56;;;;;;;0.40;0.35;;;;;;;;;;6234481;23;20028;-52
2022/05/13 10:50:44;;;;;;;0.00;0.00;;;;;;;;;;6209515;23;20036;-52
2022/05/13 10:53:09;;;;;;;0.30;0.30;;;;;;;;;;6216459;23;20480;-48
2022/05/13 10:55:54;;;;;;;0.10;0.10;;;;;;;;;;6235085;23;20012;-50
2022/05/13 10:58:27;;;;;;;0.17;0.17;;;;;;;;;;6235946;23;20016;-52
2022/05/13 11:01:11;;;;;;;0.00;0.00;;;;;;;;;;6235892;23;20015;-50
2022/05/13 11:03:54;;;;;;;0.00;0.00;;;;;;;;;;6234401;23;20015;-48
2022/05/13 11:06:34;;;;;;;0.00;0.00;;;;;;;;;;6234961;23;20306;-53
2022/05/13 11:09:15;;;;;;;0.00;0.00;;;;;;;;;;6236277;23;20024;-52
2022/05/13 11:11:42;;;;;;;0.05;0.05;;;;;;;;;;6236510;23;20012;-51
2022/05/13 11:14:32;;;;;;;0.00;0.00;;;;;;;;;;6235759;23;20008;-48
2022/05/13 11:17:04;;;;;;;0.00;0.00;;;;;;;;;;6210731;23;20320;-48
2022/05/13 11:19:36;;;;;;;0.10;0.10;;;;;;;;;;6235147;23;20076;-50
2022/05/13 11:22:13;;;;;;;0.00;0.00;;;;;;;;;;6236443;23;20012;-49
2022/05/13 11:27:25;;;;;;;0.00;0.00;;;;;;;;;;6234036;23;20039;-51
2022/05/13 11:29:59;;;;;;;1.23;0.70;;;;;;;;;;6228267;23;20012;-48
2022/05/13 11:32:25;;;;;;;0.30;0.30;;;;;;;;;;6234031;23;20363;-50
2022/05/13 11:35:08;;;;;;;0.20;0.20;;;;;;;;;;6234703;23;20022;-50
2022/05/13 11:37:37;;;;;;;0.00;0.00;;;;;;;;;;6203704;23;20024;-49
2022/05/13 11:40:21;;;;;;;0.00;0.00;;;;;;;;;;6234193;23;20009;-48
2022/05/13 11:46:00;;;;;;;0.00;0.00;;;;;;;;;;6235343;23;20027;-49
2022/05/13 11:48:27;;;;;;;0.10;0.10;;;;;;;;;;6235034;23;20020;-47
2022/05/13 11:50:59;;;;;;;0.03;0.03;;;;;;;;;;6235835;23;20009;-49
2022/05/13 11:53:43;;;;;;;0.00;0.00;;;;;;;;;;6224513;23;20063;-50
2022/05/13 11:56:17;;;;;;;0.00;0.00;;;;;;;;;;6228547;23;20097;-50
2022/05/13 11:58:49;;;;;;;0.05;0.05;;;;;;;;;;6227472;23;20028;-49
2022/05/13 12:01:37;;;;;;;0.20;0.20;;;;;;;;;;6224714;23;20020;-50
2022/05/13 12:04:29;;;;;;;1.10;0.45;;;;;;;;;;6229695;23;20012;-50
2022/05/13 12:06:55;;;;;;;0.00;0.00;;;;;;;;;;6219658;23;20012;-49
2022/05/13 12:09:44;;;;;;;0.00;0.00;;;;;;;;;;6227683;23;20012;-52
2022/05/13 12:12:22;;;;;;;0.00;0.00;;;;;;;;;;6202677;23;20016;-48
2022/05/13 12:14:47;;;;;;;0.00;0.00;;;;;;;;;;6230315;23;20023;-48
2022/05/13 12:17:20;;;;;;;0.00;0.00;;;;;;;;;;6226279;23;20016;-50
2022/05/13 12:19:45;;;;;;;0.22;0.13;;;;;;;;;;6230705;23;20020;-48
2022/05/13 12:22:22;;;;;;;0.22;0.22;;;;;;;;;;6199746;23;20016;-49
2022/05/13 12:24:55;;;;;;;0.00;0.00;;;;;;;;;;6201171;23;20153;-49
2022/05/13 12:27:34;;;;;;;0.38;0.20;;;;;;;;;;6228750;23;20101;-47
2022/05/13 12:30:01;;;;;;;0.38;0.20;;;;;;;;;;6231770;23;20092;-47
2022/05/13 12:32:35;;;;;;;0.75;0.70;;;;;;;;;;6228733;23;20012;-48
2022/05/13 12:37:47;;;;;;;0.20;0.20;;;;;;;;;;6233635;23;20117;-48
2022/05/13 12:40:22;;;;;;;0.00;0.00;;;;;;;;;;6232320;23;20081;-52
2022/05/13 12:42:48;;;;;;;0.00;0.00;;;;;;;;;;6234821;23;20462;-50
2022/05/13 12:45:22;;;;;;;0.00;0.00;;;;;;;;;;6227462;23;20016;-47
2022/05/13 12:48:08;;;;;;;0.10;0.10;;;;;;;;;;6228267;23;20035;-51
2022/05/13 12:50:50;;;;;;;0.00;0.00;;;;;;;;;;6220489;23;20595;-49
2022/05/13 12:53:27;;;;;;;0.68;0.25;;;;;;;;;;6228650;23;20086;-49
2022/05/13 12:55:57;;;;;;;0.00;0.00;;;;;;;;;;6227029;23;20354;-53
2022/05/13 12:58:23;;;;;;;0.00;0.00;;;;;;;;;;6230345;23;20059;-48
2022/05/13 13:00:49;;;;;;;0.22;0.22;;;;;;;;;;6234811;23;20008;-50
2022/05/13 13:03:14;;;;;;;0.10;0.10;;;;;;;;;;6232290;23;20008;-50
2022/05/13 13:05:42;;;;;;;0.00;0.00;;;;;;;;;;6231701;23;20379;-48
2022/05/13 13:08:14;;;;;;;0.10;0.10;;;;;;;;;;6224720;23;20016;-50
2022/05/13 13:10:48;;;;;;;0.08;0.08;;;;;;;;;;6231388;23;20156;-53
2022/05/13 13:13:20;;;;;;;0.00;0.00;;;;;;;;;;6216352;23;20027;-53
2022/05/13 13:16:06;;;;;;;0.20;0.20;;;;;;;;;;6231183;23;20023;-50
2022/05/13 13:18:35;;;;;;;0.00;0.00;;;;;;;;;;6231535;23;20016;-48
2022/05/13 13:21:03;;;;;;;0.00;0.00;;;;;;;;;;6222959;23;20390;-51
2022/05/13 13:23:31;;;;;;;0.00;0.00;;;;;;;;;;6229382;23;20070;-50
2022/05/13 13:25:57;;;;;;;0.00;0.00;;;;;;;;;;6233353;23;20050;-47
2022/05/13 13:28:22;;;;;;;0.00;0.00;;;;;;;;;;6229940;23;20026;-51
2022/05/13 13:30:59;;;;;;;0.00;0.00;;;;;;;;;;6207155;23;20119;-49
2022/05/13 13:33:28;;;;;;;0.00;0.00;;;;;;;;;;6229621;23;20064;-50
2022/05/13 13:36:03;;;;;;;10.40;0.98;;;;;;;;;;6233289;23;20208;-50
2022/05/13 13:38:28;;;;;;;1.88;1.00;;;;;;;;;;6221660;23;20015;-53
2022/05/13 13:40:53;;;;;;;0.20;0.20;;;;;;;;;;6234834;23;20019;-50
2022/05/13 13:43:26;;;;;;;0.00;0.00;;;;;;;;;;6229430;23;20788;-51
2022/05/13 13:45:53;;;;;;;0.35;0.35;;;;;;;;;;6232803;23;20016;-49
2022/05/13 13:48:31;;;;;;;0.10;0.10;;;;;;;;;;6231014;23;20360;-51
2022/05/13 13:50:59;;;;;;;0.05;0.05;;;;;;;;;;6233575;23;20070;-51
2022/05/13 13:53:30;;;;;;;0.10;0.10;;;;;;;;;;6229837;23;20008;-51
2022/05/13 13:55:58;;;;;;;0.13;0.13;;;;;;;;;;6233331;23;20090;-51
2022/05/13 13:58:26;;;;;;;0.10;0.10;;;;;;;;;;6229677;23;20020;-52
2022/05/13 14:00:52;;;;;;;0.00;0.00;;;;;;;;;;6234495;23;20008;-52
2022/05/13 14:03:19;;;;;;;0.10;0.10;;;;;;;;;;6230622;23;20690;-52
2022/05/13 14:05:50;;;;;;;0.00;0.00;;;;;;;;;;6232364;23;20064;-51
2022/05/13 14:08:17;;;;;;;0.10;0.10;;;;;;;;;;6204794;23;20249;-51
2022/05/13 14:10:46;;;;;;;0.00;0.00;;;;;;;;;;6232468;23;20047;-48
2022/05/13 14:13:11;;;;;;;0.00;0.00;;;;;;;;;;6231985;23;20016;-48
2022/05/13 14:15:41;;;;;;;4.78;0.20;;;;;;;;;;6205219;23;20020;-52
2022/05/13 14:18:06;;;;;;;;;;;;;;;;;;6232818;23;20027;-51
2022/05/13 14:20:31;;;;;;;0.00;0.00;;;;;;;;;;6232128;23;19904;-49
2022/05/13 14:23:10;;;;;;;0.55;0.55;;;;;;;;;;6233732;23;20040;-51
2022/05/13 14:25:36;;;;;;;0.00;0.00;;;;;;;;;;6224399;23;20644;-51
2022/05/13 14:28:02;;;;;;;0.10;0.10;;;;;;;;;;6231446;23;20031;-49
2022/05/13 14:30:32;;;;;;;0.00;0.00;;;;;;;;;;6229732;23;20012;-50
2022/05/13 14:32:57;;;;;;;0.00;0.00;;;;;;;;;;6206315;23;20012;-52
2022/05/13 14:35:30;;;;;;;1.45;0.28;;;;;;;;;;6230514;23;20071;-49
2022/05/13 14:37:57;;;;;;;0.13;0.13;;;;;;;;;;6233893;23;20024;-49
2022/05/13 14:40:26;;;;;;;0.85;0.57;;;;;;;;;;6230097;23;20024;-49
2022/05/13 14:42:54;;;;;;;0.65;0.20;;;;;;;;;;6234163;23;20031;-51
2022/05/13 14:45:22;;;;;;;0.00;0.00;;;;;;;;;;6231472;23;20020;-52
2022/05/13 14:47:49;;;;;;;0.10;0.10;;;;;;;;;;6204549;23;20016;-51
2022/05/13 14:50:14;;;;;;;0.00;0.00;;;;;;;;;;6230402;23;20051;-50
2022/05/13 14:52:42;;;;;;;0.10;0.10;;;;;;;;;;6234338;23;20004;-49
2022/05/13 14:55:16;;;;;;;0.00;0.00;;;;;;;;;;6231812;23;20023;-48
2022/05/13 14:57:44;;;;;;;0.20;0.20;;;;;;;;;;6229261;23;20074;-49
2022/05/13 15:00:14;;;;;;;0.00;0.00;;;;;;;;;;6221677;23;20536;-51
2022/05/13 15:02:45;;;;;;;0.10;0.10;;;;;;;;;;6224740;23;20725;-50
2022/05/13 15:05:26;;;;;;;0.00;0.00;;;;;;;;;;6226029;23;20013;-49
2022/05/13 15:07:52;;;;;;;0.40;0.40;;;;;;;;;;6208074;23;20008;-47
2022/05/13 15:10:21;;;;;;;0.30;0.30;;;;;;;;;;6234118;23;20048;-48
2022/05/13 15:12:47;;;;;;;0.10;0.10;;;;;;;;;;6231872;23;20401;-47
2022/05/13 15:15:12;;;;;;;0.00;0.00;;;;;;;;;;6233364;23;20016;-52
2022/05/13 15:17:49;;;;;;;0.80;0.80;;;;;;;;;;6233376;23;20034;-48
2022/05/13 15:20:14;;;;;;;0.17;0.17;;;;;;;;;;6230832;23;20866;-48